createdAt,value
2023-02-15T00:00:03.927Z,98.88477
2023-02-15T00:05:06.705Z,99.25781
2023-02-15T00:10:03.983Z,99.21484
2023-02-15T00:15:03.775Z,98.97656
2023-02-15T00:20:05.288Z,99.00879
2023-02-15T00:25:04.036Z,98.70801
2023-02-15T00:30:03.888Z,98.5459
2023-02-15T00:35:03.635Z,98.86328
2023-02-15T00:40:03.832Z,98.71973
2023-02-15T00:45:03.708Z,98.9248
2023-02-15T00:50:06.510Z,98.85059
2023-02-15T00:55:04.831Z,98.65918
2023-02-15T01:00:03.589Z,98.77734
2023-02-15T01:05:03.765Z,98.36914
2023-02-15T01:10:05.281Z,98.96875
2023-02-15T01:15:12.703Z,98.95996
2023-02-15T01:20:05.940Z,98.42773
2023-02-15T01:25:06.857Z,98.75586
2023-02-15T01:30:07.904Z,98.81934
2023-02-15T01:35:03.788Z,98.80176
2023-02-15T01:40:04.518Z,98.67969
2023-02-15T01:45:04.820Z,98.51563
2023-02-15T01:50:07.202Z,98.68848
2023-02-15T01:55:05.468Z,98.55273
2023-02-15T02:00:05.550Z,98.91504
2023-02-15T02:05:07.755Z,98.48047
2023-02-15T02:10:04.499Z,98.47656
2023-02-15T02:15:04.045Z,98.88965
2023-02-15T02:20:21.572Z,98.81934
2023-02-15T02:25:29.898Z,98.70508
2023-02-15T02:30:17.629Z,98.54199
2023-02-15T02:35:06.940Z,98.40723
2023-02-15T02:40:09.107Z,98.15137
2023-02-15T02:45:06.969Z,98.37109
2023-02-15T02:50:10.065Z,98.21094
2023-02-15T02:55:04.029Z,98.22754
2023-02-15T03:00:07.470Z,98.51172
2023-02-15T03:05:07.578Z,98.33691
2023-02-15T03:10:05.525Z,98.91309
2023-02-15T03:15:06.821Z,98.30176
2023-02-15T03:20:07.144Z,98.81152
2023-02-15T03:25:10.156Z,98.95313
2023-02-15T03:30:04.491Z,99.0498
2023-02-15T03:35:06.681Z,98.75293
2023-02-15T03:40:21.538Z,98.37305
2023-02-15T03:45:09.034Z,98.63379
2023-02-15T03:50:16.368Z,98.83398
2023-02-15T03:55:03.706Z,98.86426
2023-02-15T04:00:15.763Z,99.06836
2023-02-15T04:05:10.607Z,98.84863
2023-02-15T04:10:18.023Z,99.06738
2023-02-15T04:15:17.706Z,99.56445
2023-02-15T04:20:14.985Z,99.15137
2023-02-15T04:25:15.753Z,99.31738
2023-02-15T04:30:09.477Z,99.14648
2023-02-15T04:35:07.926Z,99.34082
2023-02-15T04:40:04.953Z,99.72754
2023-02-15T04:45:07.447Z,99.11035
2023-02-15T04:50:03.951Z,99.7168
2023-02-15T04:55:17.324Z,99.44531
2023-02-15T05:00:10.895Z,99.51855
2023-02-15T05:05:07.064Z,99.35547
2023-02-15T05:17:37.464Z,99.5166
2023-02-15T05:22:33.560Z,99.18457
2023-02-15T05:27:47.409Z,99.70215
2023-02-15T05:32:33.589Z,99.74707
2023-02-15T05:37:39.847Z,99.85449
2023-02-15T05:42:38.084Z,99.89551
2023-02-15T05:47:45.013Z,99.52344
2023-02-15T05:52:43.567Z,99.63086
2023-02-15T05:57:33.979Z,100
2023-02-15T06:02:33.543Z,99.60254
2023-02-15T06:07:33.667Z,99.80273
2023-02-15T06:12:35.019Z,99.83984
2023-02-15T06:17:35.097Z,100
2023-02-15T06:22:33.492Z,100
2023-02-15T06:27:38.938Z,100
2023-02-15T06:32:37.932Z,99.8457
2023-02-15T06:37:33.561Z,100
2023-02-15T06:42:37.956Z,100
2023-02-15T06:47:33.670Z,99.93262
2023-02-15T06:52:34.633Z,100
2023-02-15T06:57:34.012Z,100
2023-02-15T07:02:36.054Z,100
2023-02-15T07:07:33.555Z,100
2023-02-15T07:12:47.934Z,100
2023-02-15T07:17:36.079Z,100
2023-02-15T07:22:38.819Z,100
2023-02-15T07:27:33.475Z,100
2023-02-15T07:32:51.980Z,100
2023-02-15T07:37:33.710Z,100
2023-02-15T07:42:35.184Z,100
2023-02-15T07:47:40.349Z,100
2023-02-15T07:52:40.041Z,100
2023-02-15T07:57:34.040Z,100
2023-02-15T08:02:34.921Z,100
2023-02-15T08:07:54.251Z,100
2023-02-15T08:12:34.644Z,100
2023-02-15T08:17:34.892Z,99.33203
2023-02-15T08:22:33.470Z,99.15039
2023-02-15T08:27:40.052Z,99.37109
2023-02-15T08:32:35.354Z,99.11328
2023-02-15T08:37:35.479Z,98.79688
2023-02-15T08:42:33.600Z,98.18066
2023-02-15T08:47:36.523Z,98.66113
2023-02-15T08:52:33.532Z,98.44336
2023-02-15T08:57:34.629Z,98.53711
2023-02-15T09:02:34.665Z,97.7959
2023-02-15T09:07:34.926Z,97.37598
2023-02-15T09:12:33.556Z,97.01855
2023-02-15T09:17:33.940Z,96.44336
2023-02-15T09:22:34.308Z,96.33691
2023-02-15T09:27:34.141Z,96.00879
2023-02-15T09:32:39.168Z,95.76074
2023-02-15T09:37:42.676Z,95.48438
2023-02-15T09:42:48.504Z,94.63477
2023-02-15T09:47:46.481Z,94.74805
2023-02-15T09:52:49.081Z,94.14648
2023-02-15T09:57:39.229Z,93.76367
2023-02-15T10:02:43.134Z,93.19141
2023-02-15T10:07:50.416Z,92.91797
2023-02-15T10:12:42.070Z,91.25195
2023-02-15T10:17:39.938Z,89.75098
2023-02-15T10:22:48.796Z,89.99414
2023-02-15T10:27:41.153Z,88.69629
2023-02-15T10:32:36.543Z,88.13184
2023-02-15T10:37:44.813Z,88.24316
2023-02-15T10:42:38.539Z,88.10156
2023-02-15T10:47:46.987Z,87.4873
2023-02-15T10:52:41.406Z,87.05566
2023-02-15T10:57:38.215Z,86.15625
2023-02-15T11:02:40.467Z,85.83594
2023-02-15T11:07:39.133Z,85.80859
2023-02-15T11:12:38.242Z,86.2041
2023-02-15T11:17:40.960Z,86.66016
2023-02-15T11:22:40.768Z,86.96387
2023-02-15T11:27:35.378Z,86.80078
2023-02-15T11:32:35.411Z,86.5332
2023-02-15T11:37:36.049Z,87.37207
2023-02-15T11:42:47.809Z,86.89063
2023-02-15T11:47:33.860Z,86.36035
2023-02-15T11:52:34.902Z,86.69434
2023-02-15T11:57:38.679Z,86.45703
2023-02-15T12:02:37.231Z,85.87891
2023-02-15T12:07:37.278Z,85.7041
2023-02-15T12:12:34.661Z,85.46582
2023-02-15T12:17:36.050Z,85.17578
2023-02-15T12:22:40.275Z,85.4209
2023-02-15T12:27:36.036Z,85.42383
2023-02-15T12:32:35.078Z,85.54297
2023-02-15T12:37:36.638Z,85.07324
2023-02-15T12:42:46.134Z,85.00293
2023-02-15T12:47:44.346Z,84.59277
2023-02-15T12:52:33.329Z,84.11621
2023-02-15T12:57:34.636Z,83.99219
2023-02-15T13:02:41.332Z,83.4873
2023-02-15T13:07:36.125Z,83.33984
2023-02-15T13:12:40.128Z,82.9873
2023-02-15T13:17:39.421Z,83.21289
2023-02-15T13:22:40.181Z,83.0791
2023-02-15T13:27:36.836Z,83.16113
2023-02-15T13:32:37.012Z,83.29688
2023-02-15T13:37:43.087Z,83.52539
2023-02-15T13:42:37.500Z,83.45313
2023-02-15T13:47:38.984Z,83.03223
2023-02-15T13:52:42.316Z,82.92676
2023-02-15T13:57:45.638Z,82.69824
2023-02-15T14:02:41.916Z,82.39648
2023-02-15T14:07:41.854Z,82.76953
2023-02-15T14:12:40.025Z,82.35742
2023-02-15T14:17:44.030Z,82.66992
2023-02-15T14:22:37.400Z,82.59766
2023-02-15T14:27:44.351Z,82.70801
2023-02-15T14:32:39.617Z,82.17676
2023-02-15T14:37:43.504Z,82.25586
2023-02-15T14:42:35.494Z,82.56641
2023-02-15T14:47:38.148Z,82.13965
2023-02-15T14:52:36.450Z,82.25488
2023-02-15T14:57:37.567Z,83.00098
2023-02-15T15:02:44.619Z,83.19434
2023-02-15T15:07:41.341Z,83.37207
2023-02-15T15:12:50.606Z,83.68359
2023-02-15T15:17:44.705Z,84.11621
2023-02-15T15:22:34.036Z,83.70117
2023-02-15T15:27:44.711Z,83.88477
2023-02-15T15:32:37.000Z,84.24609
2023-02-15T15:37:53.829Z,84.56055
2023-02-15T15:42:38.258Z,84.91406
2023-02-15T15:47:56.149Z,85.39941
2023-02-15T15:52:41.333Z,85.39844
2023-02-15T15:57:37.166Z,85.52734
2023-02-15T16:02:33.693Z,85.86914
2023-02-15T16:07:35.931Z,85.7002
2023-02-15T16:12:35.092Z,86.40332
2023-02-15T16:17:35.229Z,86.63184
2023-02-15T16:22:33.522Z,88.26367
2023-02-15T16:27:40.428Z,89.16211
2023-02-15T16:32:36.682Z,90.3623
2023-02-15T16:37:37.508Z,90.12109
2023-02-15T16:42:33.205Z,91.88184
2023-02-15T16:47:34.440Z,92.13672
2023-02-15T16:52:37.626Z,92.49121
2023-02-15T16:57:38.795Z,93.86328
2023-02-15T17:02:55.107Z,94.40234
2023-02-15T17:07:34.217Z,95.32715
2023-02-15T17:12:58.660Z,95.5332
2023-02-15T17:17:35.801Z,96.13086
2023-02-15T17:22:33.509Z,97.70215
2023-02-15T17:27:35.741Z,97.45703
2023-02-15T17:32:36.747Z,98.18555
2023-02-15T17:37:36.378Z,98.4668
2023-02-15T17:42:37.647Z,98.58594
2023-02-15T17:47:34.765Z,98.77148
2023-02-15T17:52:34.290Z,98.58008
2023-02-15T17:57:39.018Z,98.57324
2023-02-15T18:02:49.685Z,98.37305
2023-02-15T18:07:44.622Z,98.32031
2023-02-15T18:12:34.722Z,97.9043
2023-02-15T18:17:38.530Z,98.11719
2023-02-15T18:22:35.299Z,98.1123
2023-02-15T18:27:35.059Z,98.1543
2023-02-15T18:32:36.383Z,97.73145
2023-02-15T18:37:38.042Z,97.63574
2023-02-15T18:42:37.058Z,97.32422
2023-02-15T18:47:46.600Z,96.62207
2023-02-15T18:52:40.758Z,96.25781
2023-02-15T18:57:36.345Z,96.38086
2023-02-15T19:02:37.495Z,96.59863
2023-02-15T19:07:34.556Z,96.69824
2023-02-15T19:12:34.689Z,96.51953
2023-02-15T19:17:33.544Z,96.46973
2023-02-15T19:22:48.222Z,96.73633
2023-02-15T19:27:34.863Z,96.53223
2023-02-15T19:32:33.462Z,96.45898
2023-02-15T19:37:37.969Z,96.18848
2023-02-15T19:42:36.511Z,96.29688
2023-02-15T19:47:36.243Z,96.74414
2023-02-15T19:52:38.332Z,96.78223
2023-02-15T19:57:35.648Z,96.69434
2023-02-15T20:02:36.391Z,96.30957
2023-02-15T20:07:33.392Z,96.55859
2023-02-15T20:12:35.819Z,96.4834
2023-02-15T20:17:33.330Z,96.48633
2023-02-15T20:22:36.091Z,96.60254
2023-02-15T20:27:34.873Z,96.33496
2023-02-15T20:32:33.339Z,96.59082
2023-02-15T20:37:38.336Z,96.55469
2023-02-15T20:42:33.489Z,96.62891
2023-02-15T20:47:33.543Z,96.84961
2023-02-15T20:52:33.441Z,97.26367
2023-02-15T20:57:34.504Z,96.96875
2023-02-15T21:02:33.525Z,97.01172
2023-02-15T21:07:33.413Z,97.1875
2023-02-15T21:12:33.455Z,96.62207
2023-02-15T21:17:33.342Z,96.80078
2023-02-15T21:22:33.248Z,97.08887
2023-02-15T21:27:33.457Z,96.55957
2023-02-15T21:32:33.407Z,96.97559
2023-02-15T21:37:36.416Z,96.98633
2023-02-15T21:42:47.401Z,96.87207
2023-02-15T21:48:02.653Z,96.43555
2023-02-15T21:52:35.824Z,96.6582
2023-02-15T21:57:33.160Z,96.47852
2023-02-15T22:02:34.756Z,96.77246
2023-02-15T22:07:33.172Z,96.62988
2023-02-15T22:12:34.457Z,96.2998
2023-02-15T22:17:34.156Z,96.18457
2023-02-15T22:22:36.163Z,96.34668
2023-02-15T22:27:33.866Z,96.04883
2023-02-15T22:32:33.244Z,96.62402
2023-02-15T22:37:33.484Z,96.99023
2023-02-15T22:42:33.500Z,96.62793
2023-02-15T22:47:34.254Z,96.53418
2023-02-15T22:52:33.274Z,96.55859
2023-02-15T22:57:37.623Z,97.16113
2023-02-15T23:02:33.081Z,96.49023
2023-02-15T23:07:33.638Z,96.53027
2023-02-15T23:12:45.282Z,96.7041
2023-02-15T23:17:33.173Z,96.66895
2023-02-15T23:22:33.236Z,96.6543
2023-02-15T23:27:44.615Z,97.0957
2023-02-15T23:32:33.614Z,96.27051
2023-02-15T23:37:36.171Z,97.07422
2023-02-15T23:42:34.435Z,96.66016
2023-02-15T23:47:45.202Z,97.19434
2023-02-15T23:52:33.177Z,97.07324
2023-02-15T23:57:33.214Z,97.02148
